Time;durP1;ratioP1;P1;durP2;ratioP2;P2;SDS_P1;SDS_P2;PMS_P1;PMS_P2;Temp;Humidity;BMP_temperature;BMP_pressure;BME280_temperature;BME280_humidity;BME280_pressure;Samples;Min_cycle;Max_cycle;Signal;HPM_P1;HPM_P2
2022/02/19 00:02:05;;;;;;;4.93;1.38;;;17.00;71.70;;;;;;5006314;28;96718;-55
2022/02/19 00:04:37;;;;;;;4.40;1.40;;;17.00;71.70;;;;;;5006094;28;95876;-56
2022/02/19 00:07:07;;;;;;;3.75;1.35;;;17.00;71.60;;;;;;5014283;28;95341;-56
2022/02/19 00:09:39;;;;;;;5.22;1.88;;;17.00;71.50;;;;;;5019892;28;95681;-57
2022/02/19 00:12:10;;;;;;;7.63;1.23;;;17.10;71.60;;;;;;5018428;28;95539;-53
2022/02/19 00:14:42;;;;;;;4.25;1.15;;;17.10;71.50;;;;;;5015143;28;95982;-58
2022/02/19 00:17:12;;;;;;;4.63;1.15;;;17.10;71.50;;;;;;5008351;28;95767;-57
2022/02/19 00:19:42;;;;;;;5.05;1.27;;;17.10;71.50;;;;;;5023034;28;95765;-57
2022/02/19 00:22:12;;;;;;;3.60;1.63;;;17.10;71.40;;;;;;5023274;28;95919;-57
2022/02/19 00:24:42;;;;;;;3.08;0.90;;;17.10;71.40;;;;;;5019548;28;96111;-57
2022/02/19 00:27:13;;;;;;;;;;;17.20;71.40;;;;;;5022377;28;95931;-57
2022/02/19 00:29:45;;;;;;;3.22;1.08;;;17.20;72.00;;;;;;5015332;28;95678;-56
2022/02/19 00:32:16;;;;;;;2.50;1.15;;;17.20;71.40;;;;;;5007395;27;98602;-57
2022/02/19 00:34:47;;;;;;;2.35;1.00;;;17.30;71.40;;;;;;5023026;28;96531;-55
2022/02/19 00:37:20;;;;;;;3.30;1.55;;;17.30;71.40;;;;;;5015875;28;95583;-57
2022/02/19 00:39:51;;;;;;;3.85;1.38;;;17.30;71.30;;;;;;5020420;28;95360;-58
2022/02/19 00:42:22;;;;;;;3.42;1.10;;;17.40;71.30;;;;;;5015383;28;95697;-56
2022/02/19 00:44:53;;;;;;;3.95;2.05;;;17.40;71.40;;;;;;5001658;28;96402;-55
2022/02/19 00:47:25;;;;;;;7.65;1.73;;;17.40;71.30;;;;;;5013600;27;97181;-57
2022/02/19 00:49:55;;;;;;;3.20;0.93;;;17.40;71.30;;;;;;5028647;28;95761;-58
2022/02/19 00:52:25;;;;;;;3.80;1.42;;;17.40;71.30;;;;;;5033388;28;95711;-56
2022/02/19 00:54:56;;;;;;;2.50;0.95;;;17.50;71.40;;;;;;5002563;28;98057;-57
2022/02/19 00:57:28;;;;;;;3.65;0.90;;;17.50;71.30;;;;;;4997168;28;96053;-57
2022/02/19 00:59:58;;;;;;;1.20;0.73;;;17.60;71.30;;;;;;5004555;28;95880;-56
2022/02/19 01:02:32;;;;;;;5.30;1.20;;;17.60;71.30;;;;;;5000739;28;96810;-57
2022/02/19 01:05:09;;;;;;;3.30;1.10;;;17.60;71.20;;;;;;4999498;28;97958;-57
2022/02/19 01:07:42;;;;;;;5.10;1.17;;;17.60;71.20;;;;;;5009724;28;98191;-56
2022/02/19 01:10:16;;;;;;;1.80;0.90;;;17.60;71.20;;;;;;5015984;28;95639;-57
2022/02/19 01:12:47;;;;;;;3.60;1.17;;;17.70;71.30;;;;;;5031591;28;95998;-56
2022/02/19 01:15:21;;;;;;;3.75;1.10;;;17.70;71.20;;;;;;5004837;27;98331;-58
2022/02/19 01:17:53;;;;;;;3.53;1.50;;;17.70;71.30;;;;;;5031577;28;95776;-57
2022/02/19 01:20:24;;;;;;;3.35;1.15;;;17.70;71.20;;;;;;5022104;27;96745;-53
2022/02/19 01:22:55;;;;;;;4.97;1.30;;;17.80;71.30;;;;;;5006442;28;95964;-57
2022/02/19 01:25:28;;;;;;;7.22;1.20;;;17.80;71.20;;;;;;5026058;28;96047;-58
2022/02/19 01:28:00;;;;;;;4.57;1.58;;;17.80;71.30;;;;;;4999591;28;97189;-56
2022/02/19 01:30:31;;;;;;;4.53;1.42;;;17.80;62.80;;;;;;4988536;28;96097;-58
2022/02/19 01:33:04;;;;;;;4.55;1.15;;;17.90;72.00;;;;;;5025292;28;95652;-57
2022/02/19 01:35:34;;;;;;;3.72;1.40;;;17.90;71.20;;;;;;5010310;28;96123;-57
2022/02/19 01:38:05;;;;;;;5.47;1.67;;;17.90;71.30;;;;;;5018791;28;95736;-58
2022/02/19 01:40:37;;;;;;;4.03;1.38;;;18.00;71.20;;;;;;5022949;28;95979;-57
2022/02/19 01:43:10;;;;;;;9.80;1.55;;;18.00;71.40;;;;;;5016946;28;96000;-57
2022/02/19 01:45:42;;;;;;;4.40;1.42;;;18.00;71.10;;;;;;5019413;28;96419;-58
2022/02/19 01:48:12;;;;;;;7.03;1.30;;;18.00;71.00;;;;;;5028953;28;95959;-57
2022/02/19 01:50:43;;;;;;;3.60;1.10;;;18.00;71.00;;;;;;4995865;28;95986;-57
2022/02/19 01:53:17;;;;;;;4.68;1.00;;;18.10;71.10;;;;;;5007845;28;96100;-57
2022/02/19 01:55:57;;;;;;;3.65;1.13;;;18.10;71.00;;;;;;5023590;28;97762;-57
2022/02/19 01:58:45;;;;;;;3.08;1.17;;;18.20;71.00;;;;;;5020986;28;95958;-58
2022/02/19 02:01:23;;;;;;;4.75;1.45;;;18.20;71.00;;;;;;5005917;28;95958;-53
2022/02/19 02:04:12;;;;;;;3.83;1.40;;;18.20;70.70;;;;;;5010840;28;95554;-56
2022/02/19 02:06:44;;;;;;;1.95;0.90;;;18.20;70.80;;;;;;5019660;28;96850;-55
2022/02/19 02:09:16;;;;;;;2.15;1.15;;;18.30;62.40;;;;;;5008783;28;97232;-55
2022/02/19 02:11:47;;;;;;;4.30;1.38;;;18.30;70.70;;;;;;5011491;28;95883;-54
2022/02/19 02:14:18;;;;;;;2.90;1.27;;;18.30;70.70;;;;;;5024420;28;96024;-55
2022/02/19 02:17:10;;;;;;;;;;;18.40;70.80;;;;;;5020004;28;95734;-57
2022/02/19 02:19:41;;;;;;;3.60;1.40;;;18.40;70.60;;;;;;5023205;28;95825;-54
2022/02/19 02:22:18;;;;;;;4.15;1.20;;;18.40;70.50;;;;;;5011561;28;95808;-57
2022/02/19 02:24:51;;;;;;;1.80;0.95;;;18.40;70.50;;;;;;5016942;28;95710;-56
2022/02/19 02:27:37;;;;;;;4.15;1.33;;;18.50;70.60;;;;;;4996228;28;96206;-54
2022/02/19 02:30:08;;;;;;;1.98;1.33;;;18.60;70.50;;;;;;5022653;28;95845;-54
2022/02/19 02:32:44;;;;;;;7.03;1.73;;;18.60;70.50;;;;;;5021321;27;97849;-56
2022/02/19 02:35:15;;;;;;;4.07;1.83;;;18.60;70.50;;;;;;5010166;28;95796;-56
2022/02/19 02:37:48;;;;;;;4.10;1.38;;;18.70;71.10;;;;;;4999066;28;96054;-55
2022/02/19 02:40:20;;;;;;;2.75;1.30;;;18.70;70.40;;;;;;5025215;28;95791;-58
2022/02/19 02:42:50;;;;;;;4.70;1.58;;;18.70;70.30;;;;;;5020429;28;96020;-56
2022/02/19 02:45:21;;;;;;;;;;;18.70;70.20;;;;;;4990032;28;95892;-55
2022/02/19 02:48:14;;;;;;;7.70;1.75;;;18.80;70.30;;;;;;5014457;28;96122;-57
2022/02/19 02:50:47;;;;;;;5.15;1.77;;;18.80;70.30;;;;;;5026988;28;98117;-57
2022/02/19 02:53:38;;;;;;;2.97;1.40;;;18.90;70.30;;;;;;5022482;28;95491;-54
2022/02/19 02:56:11;;;;;;;2.47;1.35;;;18.90;70.10;;;;;;5012883;28;95503;-56
2022/02/19 02:58:42;;;;;;;4.78;1.40;;;19.00;70.10;;;;;;5007501;28;96118;-55
2022/02/19 03:01:14;;;;;;;6.13;1.65;;;19.10;70.00;;;;;;5005510;28;96003;-56
2022/02/19 03:03:46;;;;;;;3.55;1.98;;;19.10;69.80;;;;;;4997606;28;95614;-54
2022/02/19 03:06:18;;;;;;;5.15;1.40;;;19.20;69.80;;;;;;5010786;28;95966;-55
2022/02/19 03:08:52;;;;;;;6.25;1.52;;;19.30;69.70;;;;;;4992337;28;96714;-53
2022/02/19 03:11:22;;;;;;;4.10;1.20;;;19.40;69.60;;;;;;5014498;28;95755;-54
2022/02/19 03:13:55;;;;;;;4.03;1.77;;;19.50;69.60;;;;;;5016555;28;95842;-54
2022/02/19 03:16:25;;;;;;;4.88;1.90;;;19.50;69.40;;;;;;5002211;27;96113;-55
2022/02/19 03:18:57;;;;;;;3.88;1.55;;;19.60;69.40;;;;;;5000746;28;98483;-53
2022/02/19 03:21:27;;;;;;;;;;;19.60;69.20;;;;;;5025068;28;97907;-54
2022/02/19 03:23:58;;;;;;;6.88;2.20;;;19.70;69.20;;;;;;5015991;28;95403;-57
2022/02/19 03:26:28;;;;;;;;;;;19.70;69.10;;;;;;5005181;28;95493;-55
2022/02/19 03:29:05;;;;;;;4.55;1.75;;;19.80;69.10;;;;;;5011709;28;96053;-54
2022/02/19 03:31:42;;;;;;;3.60;1.65;;;19.80;69.10;;;;;;4990487;27;96195;-53
2022/02/19 03:34:16;;;;;;;6.65;2.13;;;19.90;69.10;;;;;;5013245;28;95887;-52
2022/02/19 03:36:48;;;;;;;2.83;1.50;;;19.90;69.10;;;;;;5018648;28;96168;-53
2022/02/19 03:39:19;;;;;;;4.82;1.55;;;19.90;69.00;;;;;;5012899;28;98316;-56
2022/02/19 03:41:50;;;;;;;5.80;1.70;;;19.90;68.90;;;;;;5010353;28;97693;-55
2022/02/19 03:44:23;;;;;;;5.75;2.05;;;19.90;68.50;;;;;;5025021;28;97715;-56
2022/02/19 03:47:02;;;;;;;3.42;1.20;;;19.90;68.30;;;;;;5009127;28;97606;-53
2022/02/19 03:49:44;;;;;;;5.82;1.40;;;19.90;67.90;;;;;;5014954;28;98337;-53
2022/02/19 03:52:15;;;;;;;5.68;1.52;;;19.90;67.60;;;;;;5008739;28;97477;-55
2022/02/19 03:54:46;;;;;;;2.85;1.15;;;19.90;67.00;;;;;;5004959;28;97445;-49
2022/02/19 03:57:18;;;;;;;7.50;1.70;;;19.90;66.90;;;;;;5003749;28;95852;-52
2022/02/19 03:59:50;;;;;;;2.78;1.50;;;19.90;66.10;;;;;;5012255;28;96487;-56
2022/02/19 04:02:21;;;;;;;2.40;1.30;;;19.90;65.90;;;;;;5003149;27;95633;-54
2022/02/19 04:04:54;;;;;;;5.70;1.83;;;19.90;65.40;;;;;;5016987;27;96584;-50
2022/02/19 04:07:26;;;;;;;4.30;1.80;;;20.00;65.10;;;;;;5007757;28;96907;-55
2022/02/19 04:10:02;;;;;;;3.97;1.38;;;20.00;57.20;;;;;;5016141;28;98225;-50
2022/02/19 04:12:38;;;;;;;4.80;1.98;;;20.00;64.60;;;;;;5009799;28;97693;-56
2022/02/19 04:15:12;;;;;;;5.00;1.55;;;20.00;64.60;;;;;;5018337;28;97614;-51
2022/02/19 04:17:47;;;;;;;3.78;1.60;;;20.10;64.50;;;;;;5013451;28;97699;-55
2022/02/19 04:20:17;;;;;;;5.43;1.70;;;20.10;64.10;;;;;;4999243;28;96118;-53
2022/02/19 04:22:47;;;;;;;4.72;1.80;;;20.10;64.00;;;;;;5017479;28;96050;-52
2022/02/19 04:25:18;;;;;;;5.40;1.90;;;20.10;63.70;;;;;;4991937;28;95889;-53
2022/02/19 04:27:51;;;;;;;3.72;1.52;;;20.20;63.60;;;;;;5009508;28;95688;-53
2022/02/19 04:30:24;;;;;;;2.75;1.55;;;20.20;63.00;;;;;;5002434;28;96657;-50
2022/02/19 04:32:59;;;;;;;3.10;1.65;;;20.10;63.00;;;;;;4995959;28;103634;-54
2022/02/19 04:35:31;;;;;;;2.20;1.45;;;20.20;62.80;;;;;;5001070;28;95932;-52
2022/02/19 04:38:03;;;;;;;6.18;1.80;;;20.20;62.10;;;;;;5014566;28;95821;-51
2022/02/19 04:40:36;;;;;;;2.58;1.20;;;20.20;61.90;;;;;;4987848;28;96298;-55
2022/02/19 04:43:08;;;;;;;4.10;1.88;;;20.20;61.60;;;;;;5008390;28;97208;-52
2022/02/19 04:45:42;;;;;;;3.42;1.42;;;20.20;61.40;;;;;;5011064;28;95832;-54
2022/02/19 04:48:14;;;;;;;4.47;1.48;;;20.30;61.20;;;;;;5015097;28;95976;-54
2022/02/19 04:50:47;;;;;;;4.18;1.70;;;20.30;61.00;;;;;;4982807;28;96024;-54
2022/02/19 04:53:18;;;;;;;2.90;1.13;;;20.30;60.90;;;;;;5002486;28;95667;-53
2022/02/19 04:55:50;;;;;;;2.00;1.30;;;20.30;60.60;;;;;;4990873;28;96064;-55
2022/02/19 04:58:23;;;;;;;3.30;1.20;;;20.30;60.30;;;;;;5008357;28;95704;-54
2022/02/19 05:00:54;;;;;;;3.53;1.33;;;20.30;60.00;;;;;;5009980;28;98199;-56
2022/02/19 05:03:25;;;;;;;2.58;1.58;;;20.30;60.00;;;;;;5026508;28;97357;-53
2022/02/19 05:06:20;;;;;;;1.90;1.10;;;20.40;59.80;;;;;;4997655;28;95868;-54
2022/02/19 05:09:02;;;;;;;2.90;1.40;;;20.40;59.70;;;;;;5027721;28;96022;-54
2022/02/19 05:11:42;;;;;;;4.05;1.27;;;20.40;59.50;;;;;;5025404;28;96046;-55
2022/02/19 05:14:14;;;;;;;3.03;1.75;;;20.40;59.10;;;;;;5007409;28;96044;-53
2022/02/19 05:16:48;;;;;;;4.22;1.00;;;20.40;59.20;;;;;;5003002;28;95843;-54
2022/02/19 05:19:23;;;;;;;2.80;1.23;;;20.40;59.10;;;;;;5008020;28;96053;-53
2022/02/19 05:21:53;;;;;;;2.33;1.20;;;20.40;59.00;;;;;;5024617;28;96181;-55
2022/02/19 05:24:26;;;;;;;3.85;1.20;;;20.50;58.60;;;;;;5021744;28;98183;-55
2022/02/19 05:27:05;;;;;;;3.97;1.50;;;20.50;58.50;;;;;;5026069;28;95743;-54
2022/02/19 05:29:38;;;;;;;3.15;1.13;;;20.40;58.50;;;;;;5019526;28;95752;-55
2022/02/19 05:32:13;;;;;;;3.78;1.17;;;20.50;58.40;;;;;;5013768;28;98412;-54
2022/02/19 05:35:04;;;;;;;5.68;1.60;;;20.50;58.10;;;;;;5021387;28;95781;-54
2022/02/19 05:37:38;;;;;;;2.10;1.33;;;20.50;57.90;;;;;;5025912;28;95273;-51
2022/02/19 05:40:09;;;;;;;1.35;0.98;;;20.50;57.60;;;;;;5026613;28;95858;-50
2022/02/19 05:42:43;;;;;;;1.77;1.13;;;20.60;57.80;;;;;;5025404;28;98867;-50
2022/02/19 05:45:28;;;;;;;2.13;1.20;;;20.60;57.50;;;;;;5019197;28;97779;-55
2022/02/19 05:48:01;;;;;;;2.92;1.58;;;20.60;57.50;;;;;;5018896;28;96047;-52
2022/02/19 05:50:51;;;;;;;2.70;1.17;;;20.60;57.10;;;;;;5020108;28;95458;-57
2022/02/19 05:53:42;;;;;;;1.90;1.20;;;20.60;57.40;;;;;;5002022;28;96311;-53
2022/02/19 05:56:13;;;;;;;2.25;1.45;;;20.60;57.00;;;;;;5009224;28;97270;-55
2022/02/19 05:58:43;;;;;;;1.50;1.00;;;20.60;57.10;;;;;;5013717;28;96791;-55
2022/02/19 06:01:17;;;;;;;1.55;1.23;;;20.70;57.20;;;;;;5006718;28;95915;-55
2022/02/19 06:04:00;;;;;;;3.72;1.48;;;20.70;57.00;;;;;;5016585;28;96433;-52
2022/02/19 06:06:32;;;;;;;1.33;1.05;;;20.70;57.00;;;;;;5011398;28;97687;-54
2022/02/19 06:09:03;;;;;;;;;;;20.80;56.90;;;;;;5018259;28;95869;-56
2022/02/19 06:11:42;;;;;;;4.05;1.27;;;20.80;56.90;;;;;;5022887;28;96037;-51
2022/02/19 06:14:31;;;;;;;5.22;1.10;;;20.80;56.60;;;;;;5016204;28;95559;-55
2022/02/19 06:17:06;;;;;;;4.28;1.17;;;20.80;56.70;;;;;;5015345;27;95607;-53
2022/02/19 06:19:41;;;;;;;3.20;1.20;;;20.80;56.50;;;;;;4999357;28;95850;-52
2022/02/19 06:22:13;;;;;;;2.92;0.98;;;20.90;56.60;;;;;;5021097;28;95503;-52
2022/02/19 06:24:45;;;;;;;2.55;1.10;;;20.90;56.30;;;;;;5023797;28;98071;-54
2022/02/19 06:27:18;;;;;;;2.95;1.20;;;20.90;56.40;;;;;;5010089;28;97286;-54
2022/02/19 06:29:53;;;;;;;3.45;1.02;;;20.90;56.20;;;;;;5016452;28;95996;-56
2022/02/19 06:32:35;;;;;;;4.07;1.33;;;20.90;55.90;;;;;;4998983;28;95881;-55
2022/02/19 06:35:09;;;;;;;2.80;1.05;;;20.90;56.00;;;;;;5019004;28;96112;-53
2022/02/19 06:37:44;;;;;;;4.25;0.98;;;20.90;55.60;;;;;;5020305;28;97755;-54
2022/02/19 06:40:18;;;;;;;2.58;1.10;;;20.90;55.80;;;;;;5010406;28;96093;-53
2022/02/19 06:42:55;;;;;;;1.63;1.20;;;20.90;55.50;;;;;;5025213;28;95419;-54
2022/02/19 06:45:29;;;;;;;4.65;2.10;;;20.90;55.30;;;;;;5004773;28;97284;-54
2022/02/19 06:47:59;;;;;;;3.40;1.00;;;20.90;55.30;;;;;;5011288;28;104253;-51
2022/02/19 06:50:29;;;;;;;4.43;1.50;;;20.90;55.30;;;;;;5025386;28;95946;-52
2022/02/19 06:53:04;;;;;;;3.53;1.30;;;20.90;55.20;;;;;;5011205;28;95792;-56
2022/02/19 06:55:36;;;;;;;;;;;20.90;55.20;;;;;;5009340;28;98077;-55
2022/02/19 06:58:11;;;;;;;4.68;1.55;;;20.90;55.20;;;;;;5009279;28;97638;-54
2022/02/19 07:00:51;;;;;;;3.35;1.60;;;21.00;55.10;;;;;;4994278;28;95619;-55
2022/02/19 07:03:24;;;;;;;3.15;1.20;;;20.90;54.90;;;;;;5019838;28;95392;-54
2022/02/19 07:06:05;;;;;;;1.77;1.25;;;21.00;54.90;;;;;;5014821;28;96662;-53
2022/02/19 07:08:40;;;;;;;4.82;1.27;;;21.00;54.90;;;;;;5007765;28;97340;-54
2022/02/19 07:11:15;;;;;;;2.95;1.27;;;21.00;55.10;;;;;;5008202;28;95855;-54
2022/02/19 07:13:46;;;;;;;4.15;1.17;;;21.00;55.20;;;;;;5012103;28;95880;-55
2022/02/19 07:16:17;;;;;;;2.85;1.27;;;21.00;55.00;;;;;;5008223;28;97515;-56
2022/02/19 07:18:53;;;;;;;4.63;1.10;;;21.10;55.00;;;;;;5017268;28;96275;-55
2022/02/19 07:21:23;;;;;;;3.47;1.80;;;21.10;55.00;;;;;;5019003;28;95927;-54
2022/02/19 07:23:54;;;;;;;4.63;2.28;;;21.10;55.10;;;;;;5011611;28;97756;-51
2022/02/19 07:26:31;;;;;;;3.88;2.10;;;21.10;55.40;;;;;;5008372;28;96108;-55
2022/02/19 07:29:07;;;;;;;5.10;2.47;;;21.10;55.60;;;;;;5009655;28;96016;-57
2022/02/19 07:31:42;;;;;;;7.97;2.47;;;21.20;56.30;;;;;;5006550;28;97143;-52
2022/02/19 07:34:12;;;;;;;5.57;2.58;;;21.10;56.30;;;;;;5010044;28;95595;-52
2022/02/19 07:36:43;;;;;;;7.93;2.92;;;21.20;56.40;;;;;;5014107;28;96095;-56
2022/02/19 07:39:15;;;;;;;5.90;2.70;;;21.20;56.40;;;;;;4995567;28;97447;-53
2022/02/19 07:41:51;;;;;;;7.03;2.80;;;21.20;56.70;;;;;;5007380;28;95777;-56
2022/02/19 07:44:40;;;;;;;;;;;21.20;56.90;;;;;;5010867;28;95662;-56
2022/02/19 07:47:40;;;;;;;5.95;2.00;;;21.20;57.30;;;;;;4993796;28;98534;-55
2022/02/19 07:59:59;;;;;;;2.67;1.80;;;21.30;58.50;;;;;;5009379;28;98012;-56
2022/02/19 08:02:31;;;;;;;8.07;2.53;;;21.30;58.80;;;;;;5007755;28;98422;-55
2022/02/19 08:05:03;;;;;;;6.70;2.17;;;21.30;58.80;;;;;;5008493;28;95838;-56
2022/02/19 08:07:35;;;;;;;6.47;2.33;;;21.30;59.10;;;;;;4997870;28;96008;-55
2022/02/19 08:10:08;;;;;;;4.93;2.00;;;21.40;59.00;;;;;;4998802;28;98364;-52
2022/02/19 08:12:39;;;;;;;5.70;2.08;;;21.40;59.30;;;;;;5022224;28;95532;-54
2022/02/19 08:15:09;;;;;;;4.57;2.38;;;21.40;59.70;;;;;;5006337;28;95930;-52
2022/02/19 08:17:39;;;;;;;8.50;2.05;;;21.40;60.00;;;;;;5010909;27;95734;-55
2022/02/19 08:20:10;;;;;;;5.72;2.33;;;21.40;60.20;;;;;;5009562;28;95913;-56
2022/02/19 08:22:41;;;;;;;7.03;2.45;;;21.40;60.40;;;;;;5010897;28;95767;-55
2022/02/19 08:25:12;;;;;;;6.00;1.98;;;21.40;60.30;;;;;;5021938;28;95516;-55
2022/02/19 08:27:43;;;;;;;5.88;2.08;;;21.40;60.60;;;;;;5019157;28;96060;-51
2022/02/19 08:30:14;;;;;;;6.18;2.00;;;21.50;60.90;;;;;;5011157;28;95833;-56
2022/02/19 08:32:44;;;;;;;2.63;1.50;;;21.50;60.90;;;;;;5016141;28;95759;-55
2022/02/19 08:35:14;;;;;;;5.45;1.98;;;21.50;61.00;;;;;;5012135;28;95941;-55
2022/02/19 08:37:44;;;;;;;2.67;1.67;;;21.50;61.10;;;;;;5020370;28;95588;-54
2022/02/19 08:40:17;;;;;;;6.38;2.13;;;21.50;61.20;;;;;;5013584;28;95241;-54
2022/02/19 08:42:48;;;;;;;5.43;2.08;;;21.50;61.20;;;;;;5017482;28;95849;-56
2022/02/19 08:45:21;;;;;;;5.22;2.17;;;21.50;61.20;;;;;;5009806;28;97190;-54
2022/02/19 08:47:54;;;;;;;5.10;1.80;;;21.50;61.20;;;;;;5015558;28;95720;-53
2022/02/19 08:50:23;;;;;;;5.47;1.75;;;21.50;61.30;;;;;;5015583;28;95843;-53
2022/02/19 08:52:53;;;;;;;5.30;2.28;;;21.50;61.40;;;;;;5012455;28;95669;-54
2022/02/19 08:55:24;;;;;;;3.67;1.50;;;21.60;61.40;;;;;;5015766;28;95759;-57
2022/02/19 08:57:57;;;;;;;5.68;1.40;;;21.60;61.50;;;;;;5010248;28;95865;-55
2022/02/19 09:00:28;;;;;;;4.95;1.83;;;21.50;61.60;;;;;;5016954;28;95978;-55
2022/02/19 09:02:59;;;;;;;3.40;1.50;;;21.50;61.50;;;;;;5017910;28;101583;-55
2022/02/19 09:05:30;;;;;;;;;;;21.50;61.50;;;;;;5017279;28;95811;-54
2022/02/19 09:08:01;;;;;;;4.70;1.58;;;21.60;61.60;;;;;;5023863;28;97000;-53
2022/02/19 09:10:37;;;;;;;3.83;1.70;;;21.60;61.70;;;;;;5012281;28;96481;-54
2022/02/19 09:13:09;;;;;;;5.45;1.45;;;21.60;61.80;;;;;;5016780;28;96013;-56
2022/02/19 09:15:40;;;;;;;5.60;1.20;;;21.60;62.00;;;;;;5009450;28;96776;-53
2022/02/19 09:18:12;;;;;;;8.45;2.40;;;21.60;62.30;;;;;;5020438;28;95765;-55
2022/02/19 09:20:42;;;;;;;4.72;1.65;;;21.70;62.50;;;;;;5018164;28;96192;-52
2022/02/19 09:23:12;;;;;;;2.95;1.40;;;21.70;62.80;;;;;;5011470;28;95789;-57
2022/02/19 09:25:44;;;;;;;6.55;2.30;;;21.70;63.10;;;;;;5018796;28;95871;-56
2022/02/19 09:28:20;;;;;;;8.02;2.00;;;21.70;63.40;;;;;;5020708;28;96083;-57
2022/02/19 09:30:51;;;;;;;9.55;2.58;;;21.70;63.40;;;;;;5016642;28;96655;-53
2022/02/19 09:33:21;;;;;;;6.68;1.67;;;21.70;63.50;;;;;;5020631;28;95797;-56
2022/02/19 09:35:50;;;;;;;10.00;2.28;;;21.70;63.40;;;;;;5018424;28;95305;-55
2022/02/19 09:38:22;;;;;;;5.72;2.28;;;21.60;63.40;;;;;;5021065;28;96772;-55
2022/02/19 09:40:54;;;;;;;7.97;2.15;;;21.50;63.20;;;;;;5012680;28;95932;-54
2022/02/19 09:43:25;;;;;;;8.07;2.38;;;21.50;63.00;;;;;;5018870;28;97534;-56
2022/02/19 09:46:00;;;;;;;7.30;2.40;;;21.40;62.70;;;;;;5010953;27;95676;-56
2022/02/19 09:48:30;;;;;;;9.07;2.30;;;21.40;62.50;;;;;;5017752;28;95776;-54
2022/02/19 09:51:00;;;;;;;8.50;2.30;;;21.40;62.60;;;;;;5018415;28;96575;-57
2022/02/19 09:53:31;;;;;;;10.35;2.65;;;21.30;62.40;;;;;;5014580;28;95247;-57
2022/02/19 09:56:03;;;;;;;9.07;2.60;;;21.30;62.40;;;;;;5015245;28;95709;-52
2022/02/19 09:58:33;;;;;;;7.85;2.60;;;21.30;62.30;;;;;;5008588;28;96611;-55
2022/02/19 10:01:24;;;;;;;8.90;2.25;;;21.30;62.30;;;;;;5011639;28;95984;-57
2022/02/19 10:04:04;;;;;;;10.63;2.63;;;21.20;62.10;;;;;;5017650;28;95668;-57
2022/02/19 10:06:36;;;;;;;10.63;2.92;;;21.20;62.30;;;;;;5020563;28;95759;-54
2022/02/19 10:09:17;;;;;;;6.63;2.20;;;21.20;62.40;;;;;;5016375;28;95867;-57
2022/02/19 10:11:49;;;;;;;9.63;2.35;;;21.20;62.70;;;;;;5016337;28;96888;-55
2022/02/19 10:14:30;;;;;;;8.43;2.20;;;21.30;63.40;;;;;;5020676;28;96087;-55
2022/02/19 10:17:18;;;;;;;6.20;2.20;;;21.40;55.60;;;;;;5010421;27;97059;-60
2022/02/19 10:19:57;;;;;;;6.40;1.95;;;21.20;63.20;;;;;;5017859;28;96060;-56
2022/02/19 10:22:29;;;;;;;8.35;2.20;;;21.20;63.40;;;;;;5016356;28;95833;-57
2022/02/19 10:25:08;;;;;;;9.80;2.08;;;21.20;63.70;;;;;;5021959;28;95634;-56
2022/02/19 10:27:57;;;;;;;3.28;1.73;;;21.30;63.90;;;;;;5021193;28;95499;-55
2022/02/19 10:30:28;;;;;;;8.27;2.00;;;21.20;64.00;;;;;;5009428;28;95259;-58
2022/02/19 10:33:02;;;;;;;10.45;2.45;;;21.20;64.10;;;;;;4991761;28;102891;-56
2022/02/19 10:35:38;;;;;;;6.65;1.65;;;21.20;63.90;;;;;;5015571;27;95705;-58
2022/02/19 10:38:15;;;;;;;7.85;2.28;;;21.20;64.20;;;;;;5015780;28;96058;-58
2022/02/19 10:40:47;;;;;;;10.25;2.08;;;21.20;64.30;;;;;;5019921;28;97448;-58
2022/02/19 10:43:29;;;;;;;4.30;1.77;;;21.20;64.30;;;;;;5017467;28;95877;-58
2022/02/19 10:46:03;;;;;;;6.85;1.70;;;21.30;64.40;;;;;;5008080;27;95384;-57
2022/02/19 10:48:35;;;;;;;5.72;1.70;;;21.20;64.50;;;;;;5010774;28;96018;-58
2022/02/19 10:51:11;;;;;;;6.75;1.92;;;21.20;64.60;;;;;;5016613;28;96005;-58
2022/02/19 10:53:45;;;;;;;7.60;2.05;;;21.20;64.50;;;;;;5016054;28;95885;-57
2022/02/19 10:56:18;;;;;;;4.80;1.48;;;21.20;64.60;;;;;;5012990;28;95991;-58
2022/02/19 10:59:03;;;;;;;6.03;2.05;;;21.20;64.60;;;;;;5014570;28;95390;-58
2022/02/19 11:01:46;;;;;;;6.45;2.05;;;21.20;64.60;;;;;;5010935;27;95754;-55
2022/02/19 11:04:21;;;;;;;4.60;1.42;;;21.20;64.50;;;;;;5004903;28;95961;-56
2022/02/19 11:06:53;;;;;;;8.73;2.30;;;21.20;64.60;;;;;;5008011;28;95895;-58
2022/02/19 11:09:25;;;;;;;11.63;2.60;;;21.20;64.60;;;;;;5020439;28;95760;-58
2022/02/19 11:11:59;;;;;;;4.13;1.70;;;21.20;64.60;;;;;;5013908;28;95792;-58
2022/02/19 11:14:30;;;;;;;4.53;1.90;;;21.20;64.60;;;;;;5008394;28;95932;-58
2022/02/19 11:17:01;;;;;;;3.13;1.60;;;21.20;64.60;;;;;;5007975;27;95814;-57
2022/02/19 11:19:33;;;;;;;2.60;1.27;;;21.20;64.60;;;;;;5002835;28;96063;-57
2022/02/19 11:22:06;;;;;;;4.47;2.10;;;21.20;65.20;;;;;;5008928;28;96099;-58
2022/02/19 11:24:40;;;;;;;8.05;1.95;;;21.10;64.60;;;;;;5009746;28;96862;-58
2022/02/19 11:27:14;;;;;;;4.10;1.90;;;21.10;64.70;;;;;;5018698;28;96092;-59
2022/02/19 11:29:46;;;;;;;5.03;1.98;;;21.10;64.60;;;;;;5014222;28;95864;-59
2022/02/19 11:32:18;;;;;;;6.68;1.73;;;21.10;64.60;;;;;;4997870;28;96231;-58
2022/02/19 11:34:51;;;;;;;3.05;1.42;;;21.10;63.20;;;;;;5011205;28;95963;-56
2022/02/19 11:37:23;;;;;;;4.78;1.58;;;21.10;64.60;;;;;;5012304;28;95702;-57
2022/02/19 11:40:10;;;;;;;6.68;1.80;;;21.10;64.70;;;;;;5018332;28;95878;-58
2022/02/19 11:42:53;;;;;;;4.35;2.42;;;21.10;64.70;;;;;;5015936;28;95967;-59
2022/02/19 11:45:32;;;;;;;5.65;2.10;;;21.10;65.00;;;;;;5007061;27;96345;-59
2022/02/19 11:48:07;;;;;;;4.55;1.70;;;21.10;64.70;;;;;;5012704;28;97240;-59
2022/02/19 11:50:42;;;;;;;3.92;1.48;;;21.00;64.70;;;;;;5014077;28;95460;-59
2022/02/19 11:53:15;;;;;;;3.92;1.55;;;21.00;64.70;;;;;;5012309;28;95854;-56
2022/02/19 11:55:48;;;;;;;4.97;2.00;;;21.00;64.70;;;;;;5013957;28;95954;-56
2022/02/19 11:58:22;;;;;;;6.43;2.17;;;21.00;64.80;;;;;;5014332;28;95918;-57
2022/02/19 12:00:57;;;;;;;6.85;2.55;;;21.00;64.90;;;;;;5011610;28;96141;-56
2022/02/19 12:03:31;;;;;;;3.25;1.33;;;21.00;64.90;;;;;;5017237;28;95254;-52
2022/02/19 12:06:15;;;;;;;4.22;1.58;;;21.00;65.00;;;;;;5013431;28;95857;-55
2022/02/19 12:08:48;;;;;;;3.70;1.40;;;21.00;65.10;;;;;;5015848;28;95615;-56
2022/02/19 12:11:25;;;;;;;3.75;1.50;;;21.00;65.20;;;;;;5009555;28;97741;-57
2022/02/19 12:13:58;;;;;;;7.65;1.77;;;21.10;65.40;;;;;;5021988;28;95670;-56
2022/02/19 12:16:31;;;;;;;5.28;1.90;;;21.20;64.90;;;;;;5005302;28;97260;-56
2022/02/19 12:19:05;;;;;;;5.75;1.38;;;21.20;64.90;;;;;;5018186;28;95672;-55
2022/02/19 12:21:39;;;;;;;6.30;1.58;;;21.20;65.10;;;;;;5025747;28;95772;-55
2022/02/19 12:24:26;;;;;;;3.63;1.33;;;21.30;65.20;;;;;;5018024;28;95807;-57
2022/02/19 12:27:00;;;;;;;3.70;1.23;;;21.30;65.10;;;;;;5019904;28;96102;-57
2022/02/19 12:29:37;;;;;;;3.75;1.27;;;21.40;65.10;;;;;;5010947;28;95768;-57
2022/02/19 12:32:06;;;;;;;3.35;1.33;;;21.50;65.20;;;;;;5005989;27;96007;-57
2022/02/19 12:34:41;;;;;;;4.03;1.38;;;21.50;65.20;;;;;;5016658;28;95793;-57
2022/02/19 12:37:13;;;;;;;1.35;1.13;;;21.60;65.20;;;;;;5010188;28;95831;-57
2022/02/19 12:39:50;;;;;;;9.00;1.60;;;21.60;65.20;;;;;;5014451;28;97884;-57
2022/02/19 12:42:22;;;;;;;3.63;1.25;;;21.60;65.20;;;;;;5013134;28;95919;-56
2022/02/19 12:45:06;;;;;;;6.05;2.10;;;21.70;65.30;;;;;;5016288;28;95814;-54
2022/02/19 12:47:38;;;;;;;12.05;2.45;;;21.70;63.30;;;;;;5015595;28;98386;-57
2022/02/19 12:50:10;;;;;;;12.68;2.72;;;21.40;61.50;;;;;;5026125;28;95988;-56
2022/02/19 12:52:43;;;;;;;5.63;1.77;;;21.20;62.30;;;;;;5022412;28;95549;-57
2022/02/19 12:55:17;;;;;;;8.98;2.55;;;21.00;62.10;;;;;;5028198;28;95604;-55
2022/02/19 12:57:52;;;;;;;7.15;2.40;;;20.90;62.10;;;;;;5015878;28;96619;-56
2022/02/19 13:00:23;;;;;;;8.55;3.67;;;20.90;62.20;;;;;;5011942;28;95348;-58
2022/02/19 13:03:04;;;;;;;7.18;3.20;;;20.70;62.20;;;;;;5016164;28;96977;-56
2022/02/19 13:05:38;;;;;;;10.60;3.80;;;20.70;62.20;;;;;;5005336;28;95570;-55
2022/02/19 13:08:12;;;;;;;12.57;3.50;;;20.60;62.00;;;;;;5021901;28;95929;-55
2022/02/19 13:10:44;;;;;;;12.90;2.78;;;20.60;62.30;;;;;;5014060;28;95835;-57
2022/02/19 13:13:21;;;;;;;11.55;3.25;;;20.60;62.20;;;;;;5017335;28;96611;-58
2022/02/19 13:15:58;;;;;;;8.35;3.25;;;20.50;61.90;;;;;;5011213;27;95700;-57
2022/02/19 13:18:49;;;;;;;8.30;2.63;;;20.40;62.10;;;;;;5004469;28;96060;-56
2022/02/19 13:21:19;;;;;;;9.68;2.10;;;20.40;62.20;;;;;;5027209;28;95457;-56
2022/02/19 13:23:54;;;;;;;8.02;2.38;;;20.30;61.30;;;;;;5028178;28;95768;-53
2022/02/19 13:26:31;;;;;;;15.63;2.45;;;20.10;61.60;;;;;;5020172;28;98739;-53
2022/02/19 13:29:02;;;;;;;7.63;1.90;;;20.00;62.20;;;;;;5019302;28;96670;-54
2022/02/19 13:31:32;;;;;;;10.80;2.33;;;20.00;62.90;;;;;;5017439;27;96955;-51
2022/02/19 13:34:06;;;;;;;8.38;1.80;;;20.00;63.20;;;;;;5008358;28;95672;-51